createdAt,value
2018-07-16T01:55:47.533Z,0
2018-07-16T01:56:48.258Z,0
2018-07-16T01:57:48.971Z,0
2018-07-16T01:58:49.692Z,0
2018-07-16T01:59:50.411Z,0
2018-07-16T02:00:51.123Z,0
2018-07-16T02:01:51.835Z,0
2018-07-16T02:02:52.548Z,0
2018-07-16T02:03:53.277Z,0
2018-07-16T02:04:53.992Z,0
2018-07-16T02:05:54.715Z,0
2018-07-16T02:06:55.428Z,0
2018-07-16T02:07:56.151Z,0
2018-07-16T02:08:56.882Z,0
2018-07-16T02:09:57.608Z,0
2018-07-16T02:10:58.322Z,0
2018-07-16T02:11:59.035Z,0
2018-07-16T02:12:59.747Z,0
2018-07-16T02:14:00.473Z,0
2018-07-16T02:15:01.184Z,0
2018-07-16T02:16:01.912Z,0
2018-07-16T02:17:02.623Z,0
2018-07-16T02:18:03.338Z,0
2018-07-16T02:19:04.051Z,0
2018-07-16T02:20:05.168Z,0
2018-07-16T02:21:05.881Z,0
2018-07-16T02:22:06.592Z,0
2018-07-16T02:23:07.308Z,0
2018-07-16T02:24:08.022Z,0
2018-07-16T02:25:08.748Z,0
2018-07-16T02:26:09.463Z,0
2018-07-16T02:27:10.176Z,0
2018-07-16T02:28:10.889Z,0
2018-07-16T02:29:11.603Z,0
2018-07-16T02:30:12.317Z,0
2018-07-16T02:31:13.043Z,0
2018-07-16T02:32:13.754Z,0
2018-07-16T02:33:14.468Z,0
2018-07-16T02:34:15.180Z,0
2018-07-16T02:35:15.895Z,0
2018-07-16T02:36:16.608Z,0
2018-07-16T02:37:17.322Z,0
2018-07-16T02:38:18.048Z,0
2018-07-16T02:39:18.762Z,0
2018-07-16T02:40:19.474Z,0
2018-07-16T02:41:20.189Z,0
2018-07-16T02:42:20.902Z,0
2018-07-16T02:43:21.618Z,0
2018-07-16T02:44:22.336Z,0
2018-07-16T02:45:23.045Z,0
2018-07-16T02:46:23.760Z,0
2018-07-16T02:47:24.487Z,0
2018-07-16T02:48:25.201Z,0
2018-07-16T02:49:25.929Z,4
2018-07-16T02:50:26.657Z,4
2018-07-16T02:51:27.382Z,0
2018-07-16T02:52:28.094Z,0
2018-07-16T02:53:28.807Z,4
2018-07-16T02:54:29.521Z,4
2018-07-16T02:55:30.234Z,4
2018-07-16T02:56:31.082Z,4
2018-07-16T02:57:31.662Z,8
2018-07-16T02:58:32.400Z,4
2018-07-16T02:59:33.103Z,4
2018-07-16T03:00:33.816Z,8
2018-07-16T03:01:34.530Z,8
2018-07-16T03:02:35.263Z,8
2018-07-16T03:03:35.972Z,8
2018-07-16T03:04:36.687Z,12
2018-07-16T03:05:37.403Z,12
2018-07-16T03:06:38.120Z,16
2018-07-16T03:07:38.843Z,20
2018-07-16T03:08:39.563Z,20
2018-07-16T03:09:40.273Z,24
2018-07-16T03:10:40.988Z,28
2018-07-16T03:11:41.702Z,28
2018-07-16T03:12:42.416Z,32
2018-07-16T03:13:43.130Z,40
2018-07-16T03:14:43.844Z,40
2018-07-16T03:15:44.558Z,44
2018-07-16T03:16:45.271Z,52
2018-07-16T03:17:46.003Z,60
2018-07-16T03:18:46.716Z,64
2018-07-16T03:19:47.431Z,72
2018-07-16T03:20:48.146Z,80
2018-07-16T03:21:48.864Z,88
2018-07-16T03:22:49.585Z,96
2018-07-16T03:23:50.300Z,104
2018-07-16T03:24:51.020Z,112
2018-07-16T03:25:51.745Z,124
2018-07-16T03:26:52.461Z,136
2018-07-16T03:27:53.178Z,144
2018-07-16T03:28:53.906Z,156
2018-07-16T03:29:54.624Z,172
2018-07-16T03:30:55.340Z,188
2018-07-16T03:31:56.071Z,200
2018-07-16T03:32:56.787Z,212
2018-07-16T03:33:57.504Z,228
2018-07-16T03:34:58.219Z,244
2018-07-16T03:35:58.935Z,260
2018-07-16T03:36:59.648Z,276
2018-07-16T03:38:00.365Z,292
2018-07-16T03:39:01.094Z,308
2018-07-16T03:40:01.808Z,328
2018-07-16T03:41:02.524Z,348
2018-07-16T03:42:03.240Z,368
2018-07-16T03:43:03.960Z,384
2018-07-16T03:44:04.677Z,408
2018-07-16T03:45:05.408Z,428
2018-07-16T03:46:06.126Z,444
2018-07-16T03:47:06.864Z,468
2018-07-16T03:48:07.629Z,488
2018-07-16T03:49:08.291Z,508
2018-07-16T03:50:09.007Z,528
2018-07-16T03:51:09.723Z,548
2018-07-16T03:52:10.441Z,572
2018-07-16T03:53:11.170Z,592
2018-07-16T03:54:11.889Z,612
2018-07-16T03:55:12.622Z,632
2018-07-16T03:56:13.337Z,656
2018-07-16T03:57:14.053Z,676
2018-07-16T03:58:14.770Z,700
2018-07-16T03:59:15.487Z,720
2018-07-16T04:01:31.797Z,768
2018-07-16T04:02:32.510Z,788
2018-07-16T04:03:33.244Z,808
2018-07-16T04:04:33.974Z,828
2018-07-16T04:05:34.691Z,852
2018-07-16T04:06:35.409Z,872
2018-07-16T04:07:36.125Z,892
2018-07-16T04:08:36.843Z,912
2018-07-16T04:09:37.560Z,936
2018-07-16T04:10:38.294Z,952
2018-07-16T04:11:39.019Z,976
2018-07-16T04:12:39.738Z,996
2018-07-16T04:13:40.456Z,1012
2018-07-16T04:14:41.174Z,1032
2018-07-16T04:15:41.899Z,1056
2018-07-16T04:16:42.625Z,1072
2018-07-16T04:17:43.357Z,1092
2018-07-16T04:18:44.079Z,1112
2018-07-16T04:19:44.797Z,1128
2018-07-16T04:20:45.517Z,1148
2018-07-16T04:21:46.235Z,1168
2018-07-16T04:22:46.955Z,1184
2018-07-16T04:23:47.673Z,1204
2018-07-16T04:24:48.392Z,1224
2018-07-16T04:25:49.124Z,1240
2018-07-16T04:26:49.840Z,1260
2018-07-16T04:27:50.558Z,1276
2018-07-16T04:28:51.287Z,1292
2018-07-16T04:29:52.007Z,1308
2018-07-16T04:30:52.762Z,1328
2018-07-16T04:31:53.444Z,1344
2018-07-16T04:32:54.164Z,1360
2018-07-16T04:33:54.882Z,1380
2018-07-16T04:34:55.602Z,1392
2018-07-16T04:35:56.319Z,1412
2018-07-16T04:36:57.037Z,1424
2018-07-16T04:37:57.756Z,1440
2018-07-16T04:38:58.476Z,1460
2018-07-16T04:39:59.314Z,1476
2018-07-16T04:40:59.913Z,1488
2018-07-16T04:42:00.633Z,1500
2018-07-16T04:43:01.351Z,1520
2018-07-16T04:44:02.073Z,1532
2018-07-16T04:45:02.788Z,1544
2018-07-16T04:46:03.510Z,1560
2018-07-16T04:47:04.230Z,1576
2018-07-16T04:48:04.949Z,1588
2018-07-16T04:49:05.682Z,1600
2018-07-16T04:50:06.415Z,1616
2018-07-16T04:51:07.148Z,1632
2018-07-16T04:52:07.879Z,1644
2018-07-16T04:53:08.605Z,1656
2018-07-16T04:54:09.323Z,1672
2018-07-16T04:55:10.037Z,1684
2018-07-16T04:56:10.814Z,1696
2018-07-16T04:57:11.476Z,1708
2018-07-16T04:58:12.196Z,1720
2018-07-16T04:59:12.929Z,1736
2018-07-16T05:00:13.662Z,1748
2018-07-16T05:01:14.381Z,1760
2018-07-16T05:02:15.101Z,1772
2018-07-16T05:03:15.843Z,1784
2018-07-16T05:04:16.552Z,1796
2018-07-16T05:05:17.271Z,1812
2018-07-16T05:06:17.990Z,1820
2018-07-16T05:07:18.726Z,1832
2018-07-16T05:08:19.443Z,1844
2018-07-16T05:09:20.166Z,1856
2018-07-16T05:10:20.895Z,1864
2018-07-16T05:11:21.627Z,1880
2018-07-16T05:12:22.344Z,1888
2018-07-16T05:13:23.064Z,1900
2018-07-16T05:14:23.784Z,1916
2018-07-16T05:15:24.504Z,1928
2018-07-16T05:16:25.236Z,1940
2018-07-16T05:17:25.969Z,1952
2018-07-16T05:18:26.837Z,1964
2018-07-16T05:19:27.405Z,1976
2018-07-16T05:20:28.124Z,1984
2018-07-16T05:21:28.844Z,1992
2018-07-16T05:22:29.578Z,2004
2018-07-16T05:23:30.300Z,2016
2018-07-16T05:24:31.018Z,2024
2018-07-16T05:25:31.754Z,2036
2018-07-16T05:26:32.472Z,2044
2018-07-16T05:27:33.204Z,2056
2018-07-16T05:28:33.921Z,2060
2018-07-16T05:29:34.639Z,2076
2018-07-16T05:30:35.368Z,2088
2018-07-16T05:31:36.120Z,2096
2018-07-16T05:32:37.015Z,2104
2018-07-16T05:33:37.548Z,2120
2018-07-16T05:34:38.267Z,2132
2018-07-16T05:35:38.986Z,2148
2018-07-16T05:36:39.716Z,2156
2018-07-16T05:37:40.436Z,2168
2018-07-16T05:38:41.178Z,2188
2018-07-16T05:39:41.876Z,2196
2018-07-16T05:40:42.600Z,2208
2018-07-16T05:41:43.328Z,2216
2018-07-16T05:42:44.047Z,2228
2018-07-16T05:43:44.769Z,2240
2018-07-16T05:44:45.485Z,2252
2018-07-16T05:45:46.206Z,2264
2018-07-16T05:46:46.927Z,2276
2018-07-16T05:47:47.643Z,2288
2018-07-16T05:48:48.374Z,2296
2018-07-16T05:49:49.091Z,2316
2018-07-16T05:50:49.814Z,2328
2018-07-16T05:51:50.543Z,2340
2018-07-16T05:52:51.276Z,2352
2018-07-16T05:53:52.009Z,2360
2018-07-16T05:54:52.728Z,2376
2018-07-16T05:55:53.453Z,2392
2018-07-16T05:56:54.183Z,2396
2018-07-16T05:57:54.900Z,2404
2018-07-16T05:58:55.620Z,2416
2018-07-16T05:59:56.342Z,2428
2018-07-16T06:00:57.072Z,2440
2018-07-16T06:01:57.792Z,2448
2018-07-16T06:02:58.509Z,2456
2018-07-16T06:03:59.227Z,2460
2018-07-16T06:04:59.946Z,2472
2018-07-16T06:06:00.665Z,2484
2018-07-16T06:07:01.388Z,2492
2018-07-16T06:08:02.118Z,2496
2018-07-16T06:09:02.837Z,2504
2018-07-16T06:10:03.559Z,2512
2018-07-16T06:11:04.276Z,2524
2018-07-16T06:12:04.995Z,2540
2018-07-16T06:13:05.727Z,2564
2018-07-16T06:14:06.449Z,2568
2018-07-16T06:15:07.175Z,2572
2018-07-16T06:16:07.891Z,2584
2018-07-16T06:17:08.631Z,2600
2018-07-16T06:18:09.343Z,2604
2018-07-16T06:19:10.077Z,2616
2018-07-16T06:20:10.796Z,2632
2018-07-16T06:21:11.515Z,2636
2018-07-16T06:22:12.248Z,2652
2018-07-16T06:23:12.967Z,2652
2018-07-16T06:24:13.700Z,2676
2018-07-16T06:25:14.420Z,2688
2018-07-16T06:26:15.155Z,2692
2018-07-16T06:27:15.875Z,2720
2018-07-16T06:28:16.631Z,2728
2018-07-16T06:29:17.317Z,2736
2018-07-16T06:30:18.038Z,2744
2018-07-16T06:31:18.759Z,2756
2018-07-16T06:32:19.493Z,2768
2018-07-16T06:33:20.200Z,2776
2018-07-16T06:34:20.920Z,2796
2018-07-16T06:35:21.640Z,2804
2018-07-16T06:36:22.360Z,2816
2018-07-16T06:37:23.082Z,2832
2018-07-16T06:38:23.802Z,2816
2018-07-16T06:39:24.523Z,2852
2018-07-16T06:40:25.453Z,2860
2018-07-16T06:41:26.412Z,2872
2018-07-16T06:42:26.704Z,2880
2018-07-16T06:43:27.436Z,2888
2018-07-16T06:44:28.186Z,2904
2018-07-16T06:45:28.920Z,2912
2018-07-16T06:46:29.655Z,2924
2018-07-16T06:47:30.377Z,2932
2018-07-16T06:48:31.098Z,2952
2018-07-16T06:49:31.821Z,2964
2018-07-16T06:50:32.541Z,2972
2018-07-16T06:51:33.261Z,2980
2018-07-16T06:52:34.034Z,2992
2018-07-16T06:53:34.753Z,3004
2018-07-16T06:54:35.477Z,3020
2018-07-16T06:55:36.212Z,3024
2018-07-16T06:56:36.935Z,3040
2018-07-16T06:57:37.653Z,3052
2018-07-16T06:58:38.375Z,3072
2018-07-16T06:59:39.098Z,3092
2018-07-16T07:00:39.821Z,3116
2018-07-16T07:01:40.542Z,3116
2018-07-16T07:02:41.274Z,3128
2018-07-16T07:03:42.010Z,3136
2018-07-16T07:04:42.730Z,3160
2018-07-16T07:05:43.452Z,3164
2018-07-16T07:06:44.174Z,3200
2018-07-16T07:07:44.894Z,3196
2018-07-16T07:08:45.617Z,3216
2018-07-16T07:09:46.355Z,3236
2018-07-16T07:10:47.075Z,3244
2018-07-16T07:11:47.797Z,3260
2018-07-16T07:12:48.532Z,3280
2018-07-16T07:13:49.256Z,3308
2018-07-16T07:14:49.978Z,3304
2018-07-16T07:15:50.703Z,3324
2018-07-16T07:16:51.436Z,3344
2018-07-16T07:17:52.160Z,3356
2018-07-16T07:18:52.881Z,3368
2018-07-16T07:19:53.603Z,3400
2018-07-16T07:20:54.325Z,3388
2018-07-16T07:21:55.048Z,3432
2018-07-16T07:22:55.787Z,3444
2018-07-16T07:23:56.508Z,3460
2018-07-16T07:24:57.232Z,3480
2018-07-16T07:25:57.953Z,3464
2018-07-16T07:26:58.688Z,3508
2018-07-16T07:27:59.411Z,3560
2018-07-16T07:29:00.150Z,3572
2018-07-16T07:30:00.873Z,3596
2018-07-16T07:31:01.598Z,3608
2018-07-16T07:32:02.323Z,3664
2018-07-16T07:33:03.045Z,3700
2018-07-16T07:34:03.766Z,3716
2018-07-16T07:35:04.600Z,3796
2018-07-16T07:36:05.296Z,3836
2018-07-16T07:37:05.953Z,3892
2018-07-16T07:38:06.692Z,3972
2018-07-16T07:39:07.419Z,4072
2018-07-16T07:40:08.156Z,4240
2018-07-16T07:41:08.882Z,4420
2018-07-16T07:42:09.609Z,4724
2018-07-16T07:43:10.352Z,5232
2018-07-16T07:44:11.079Z,7700
2018-07-16T07:45:11.825Z,15128
2018-07-16T07:46:12.550Z,27776
2018-07-16T07:47:13.292Z,43904
2018-07-16T07:48:14.023Z,7576
2018-07-16T07:49:14.749Z,60160
2018-07-16T07:50:15.479Z,62656
2018-07-16T07:51:16.212Z,64256
2018-07-16T07:52:16.948Z,60672
2018-07-16T07:53:17.677Z,62208
2018-07-16T07:54:18.519Z,64448
2018-07-16T07:55:19.416Z,62944
2018-07-16T07:56:19.871Z,61728
2018-07-16T07:57:20.599Z,6960
2018-07-16T07:58:21.343Z,61600
2018-07-16T07:59:22.071Z,62912
2018-07-16T08:00:22.802Z,65344
2018-07-16T08:01:23.550Z,67360
2018-07-16T08:02:24.276Z,71680
2018-07-16T08:03:25.090Z,74208
2018-07-16T08:04:25.754Z,75168
2018-07-16T08:05:26.501Z,80704
2018-07-16T08:06:27.240Z,81184
2018-07-16T08:07:27.971Z,81920
2018-07-16T08:08:28.702Z,80544
2018-07-16T08:09:29.431Z,78912
2018-07-16T08:10:30.161Z,75520
2018-07-16T08:11:30.903Z,74880
2018-07-16T08:12:31.647Z,74304
2018-07-16T08:13:32.393Z,73984
2018-07-16T08:14:33.121Z,73248
2018-07-16T08:15:33.852Z,73632
2018-07-16T08:16:34.585Z,72000
2018-07-16T08:17:35.317Z,73120
2018-07-16T08:18:36.047Z,72544
2018-07-16T08:19:36.780Z,73344
2018-07-16T08:20:37.511Z,72416
2018-07-16T08:21:38.246Z,69760
2018-07-16T08:22:38.980Z,68736
2018-07-16T08:23:39.714Z,66720
2018-07-16T08:24:40.446Z,56128
2018-07-16T08:25:41.180Z,33088
2018-07-16T08:26:41.914Z,18400
2018-07-16T08:27:42.649Z,14832
2018-07-16T08:28:43.387Z,13360
2018-07-16T08:29:44.131Z,12420
2018-07-16T08:30:44.865Z,11720
2018-07-16T08:31:45.603Z,11340
2018-07-16T08:32:46.341Z,10956
2018-07-16T08:33:47.159Z,10784
2018-07-16T08:34:47.822Z,10680
2018-07-16T08:35:48.565Z,10588
2018-07-16T08:36:49.304Z,10600
2018-07-16T08:37:50.042Z,10660
2018-07-16T08:38:50.784Z,10824
2018-07-16T08:39:51.526Z,11016
2018-07-16T08:40:52.281Z,11388
2018-07-16T08:41:53.024Z,11892
2018-07-16T08:42:53.763Z,12412
2018-07-16T08:43:54.518Z,13208
2018-07-16T08:44:55.279Z,14388
2018-07-16T08:45:56.015Z,16384
2018-07-16T08:46:56.776Z,27584
2018-07-16T08:47:57.516Z,52928
2018-07-16T08:48:58.263Z,74240
2018-07-16T08:49:59.019Z,81664
2018-07-16T08:50:59.761Z,81696
2018-07-16T08:52:00.523Z,82304
2018-07-16T08:53:01.252Z,87200
2018-07-16T08:54:02.007Z,88064
2018-07-16T08:55:02.762Z,92832
2018-07-16T08:56:03.517Z,89152
2018-07-16T08:57:04.272Z,86464
2018-07-16T08:58:05.017Z,86112
2018-07-16T08:59:05.768Z,83776
2018-07-16T09:00:06.508Z,84576
2018-07-16T09:01:07.249Z,81472
2018-07-16T09:02:08.002Z,85664
2018-07-16T09:03:08.742Z,84160
2018-07-16T09:04:09.562Z,82624
2018-07-16T09:05:10.272Z,82240
2018-07-16T09:06:10.993Z,85344
2018-07-16T09:07:11.786Z,85248
2018-07-16T09:08:12.473Z,85440
2018-07-16T09:09:13.235Z,89056
2018-07-16T09:10:13.985Z,87104
2018-07-16T09:11:14.771Z,91008
2018-07-16T09:12:15.482Z,90144
2018-07-16T09:13:16.280Z,82240
2018-07-16T09:14:16.965Z,86656
2018-07-16T09:15:17.721Z,82336
2018-07-16T09:16:18.462Z,85248
2018-07-16T09:17:19.206Z,87936
2018-07-16T09:18:19.948Z,84768
2018-07-16T09:19:20.759Z,82432
2018-07-16T09:20:21.447Z,82144
2018-07-16T09:21:22.189Z,83232
2018-07-16T09:22:22.931Z,88800
2018-07-16T09:23:23.689Z,89408
2018-07-16T09:24:24.432Z,87712
2018-07-16T09:25:25.177Z,85408
2018-07-16T09:26:25.919Z,85632
2018-07-16T09:27:26.671Z,93056
2018-07-16T09:28:27.416Z,86752
2018-07-16T09:29:28.157Z,91712
2018-07-16T09:30:28.904Z,90080
2018-07-16T09:31:29.642Z,89824
2018-07-16T09:32:30.385Z,95840
2018-07-16T09:33:31.124Z,87648
2018-07-16T09:34:31.868Z,89952
2018-07-16T09:35:32.609Z,85984
2018-07-16T09:36:33.362Z,87520
2018-07-16T09:37:34.115Z,90880
2018-07-16T09:38:34.854Z,84320
2018-07-16T09:39:35.591Z,85984
2018-07-16T09:40:36.329Z,87456
2018-07-16T09:41:37.070Z,84608
2018-07-16T09:42:37.807Z,89248
2018-07-16T09:43:38.550Z,82176
2018-07-16T09:44:39.291Z,88992
2018-07-16T09:45:40.032Z,91168
2018-07-16T09:46:40.772Z,92320
2018-07-16T09:47:41.514Z,93440
2018-07-16T09:48:42.253Z,96000
2018-07-16T09:49:43.000Z,97888
2018-07-16T09:50:43.750Z,95616
2018-07-16T09:51:44.502Z,91904
2018-07-16T09:52:45.246Z,95104
2018-07-16T09:53:45.999Z,97856
2018-07-16T09:54:46.740Z,94688
2018-07-16T09:55:47.497Z,91808
2018-07-16T09:56:48.237Z,92928
2018-07-16T09:57:48.973Z,90528
2018-07-16T09:58:49.726Z,95808
2018-07-16T09:59:50.481Z,99680
2018-07-16T10:00:51.230Z,94944
2018-07-16T10:01:51.969Z,90272
2018-07-16T10:02:52.707Z,95104
2018-07-16T10:03:53.447Z,94912
2018-07-16T10:04:54.187Z,94432
2018-07-16T10:05:54.926Z,95296
2018-07-16T10:06:55.663Z,90016
2018-07-16T10:07:56.402Z,93088
2018-07-16T10:08:57.140Z,95840
2018-07-16T10:09:57.878Z,87040
2018-07-16T10:10:58.618Z,86464
2018-07-16T10:11:59.357Z,89504
2018-07-16T10:13:00.097Z,84608
2018-07-16T10:14:00.847Z,92128
2018-07-16T10:15:01.602Z,90144
2018-07-16T10:16:02.353Z,92384
2018-07-16T10:17:03.095Z,100544
2018-07-16T10:18:03.836Z,91296
2018-07-16T10:19:04.575Z,88704
2018-07-16T10:20:05.330Z,90272
2018-07-16T10:21:06.051Z,85408
2018-07-16T10:22:06.795Z,89952
2018-07-16T10:23:07.532Z,84160
2018-07-16T10:24:08.271Z,84512
2018-07-16T10:25:09.010Z,90016
2018-07-16T10:26:09.752Z,79200
2018-07-16T10:27:10.489Z,77984
2018-07-16T10:28:11.229Z,78656
2018-07-16T10:29:11.969Z,82336
2018-07-16T10:30:12.707Z,82560
2018-07-16T10:31:13.447Z,82496
2018-07-16T10:32:14.244Z,86624
2018-07-16T10:33:14.941Z,88416
2018-07-16T10:34:15.676Z,86368
2018-07-16T10:35:16.416Z,85728
2018-07-16T10:36:17.157Z,91584
2018-07-16T10:37:17.912Z,89856
2018-07-16T10:38:18.665Z,89056
2018-07-16T10:39:19.461Z,90560
2018-07-16T10:40:20.144Z,89472
2018-07-16T10:41:20.886Z,92416
2018-07-16T10:42:21.626Z,94016
2018-07-16T10:43:22.365Z,87712
2018-07-16T10:44:23.106Z,88928
2018-07-16T10:45:23.849Z,93760
2018-07-16T10:46:24.586Z,92032
2018-07-16T10:47:25.329Z,89568
2018-07-16T10:48:26.069Z,83840
2018-07-16T10:49:26.807Z,87200
2018-07-16T10:50:27.550Z,87008
2018-07-16T10:51:28.315Z,87104
2018-07-16T10:52:29.057Z,90624
2018-07-16T10:53:29.796Z,94560
2018-07-16T10:54:30.537Z,88960
2018-07-16T10:55:31.291Z,87616
2018-07-16T10:56:32.031Z,81952
2018-07-16T10:57:32.771Z,84224
2018-07-16T10:58:33.511Z,86464
2018-07-16T10:59:34.253Z,85728
2018-07-16T11:00:34.987Z,91616
2018-07-16T11:01:35.726Z,89120
2018-07-16T11:02:36.477Z,86656
2018-07-16T11:03:37.230Z,87040
2018-07-16T11:04:37.967Z,78240
2018-07-16T11:05:38.705Z,81504
2018-07-16T11:06:39.442Z,70048
2018-07-16T11:07:40.195Z,25568
2018-07-16T11:08:40.945Z,10164
2018-07-16T11:09:41.681Z,8204
2018-07-16T11:10:42.431Z,7152
2018-07-16T11:11:43.177Z,6484
2018-07-16T11:12:43.925Z,6148
2018-07-16T11:13:44.658Z,5836
2018-07-16T11:14:45.392Z,5628
2018-07-16T11:15:46.129Z,5472
2018-07-16T11:16:46.862Z,5352
2018-07-16T11:17:47.608Z,5220
2018-07-16T11:18:48.344Z,5148
2018-07-16T11:19:49.079Z,5024
2018-07-16T11:20:49.810Z,4952
2018-07-16T11:21:50.554Z,4864
2018-07-16T11:22:51.288Z,4804
2018-07-16T11:23:52.019Z,4764
2018-07-16T11:24:52.750Z,4724
2018-07-16T11:25:53.483Z,4668
2018-07-16T11:26:54.216Z,4636
2018-07-16T11:27:54.947Z,4596
2018-07-16T11:28:55.684Z,4576
2018-07-16T11:29:56.421Z,4568
2018-07-16T11:30:57.158Z,4548
2018-07-16T11:31:57.905Z,4556
2018-07-16T11:32:58.663Z,4544
2018-07-16T11:33:59.399Z,4572
2018-07-16T11:35:00.146Z,4544
2018-07-16T11:36:47.401Z,4520
2018-07-16T11:37:48.341Z,4444
2018-07-16T11:38:49.084Z,4412
2018-07-16T11:39:49.813Z,4380
2018-07-16T11:40:50.552Z,4320
2018-07-16T11:41:51.287Z,4276
2018-07-16T11:42:52.026Z,4244
2018-07-16T11:43:52.767Z,4212
2018-07-16T11:44:53.514Z,4180
2018-07-16T11:45:54.256Z,4148
2018-07-16T11:46:55.005Z,4124
2018-07-16T11:47:55.740Z,4112
2018-07-16T11:48:56.488Z,4088
2018-07-16T11:49:57.221Z,4064
2018-07-16T11:50:58.003Z,4052
2018-07-16T11:51:58.740Z,4032
2018-07-16T11:52:59.478Z,4036
2018-07-16T11:54:00.228Z,4008
2018-07-16T11:55:00.979Z,3996
2018-07-16T11:56:01.711Z,3968
2018-07-16T11:57:02.446Z,3944
2018-07-16T11:58:03.183Z,3920
2018-07-16T11:59:04.017Z,3908
2018-07-16T12:00:04.651Z,3908
2018-07-16T12:01:05.383Z,3916
2018-07-16T12:02:06.116Z,3912
2018-07-16T12:03:06.851Z,3920
2018-07-16T12:04:07.579Z,3904
2018-07-16T12:05:08.373Z,3864
2018-07-16T12:06:09.039Z,3828
2018-07-16T12:07:09.787Z,3780
2018-07-16T12:08:10.495Z,3768
2018-07-16T12:09:11.225Z,3744
2018-07-16T12:10:11.954Z,3720
2018-07-16T12:11:12.694Z,3720
2018-07-16T12:12:13.443Z,3692
2018-07-16T12:13:14.150Z,3652
2018-07-16T12:14:14.878Z,3612
2018-07-16T12:15:15.610Z,3568
2018-07-16T12:16:16.349Z,3528
2018-07-16T12:17:17.090Z,3504
2018-07-16T12:18:17.819Z,3492
2018-07-16T12:19:18.559Z,3520
2018-07-16T12:20:19.287Z,3508
2018-07-16T12:21:20.015Z,3516
2018-07-16T12:22:20.741Z,3488
2018-07-16T12:23:21.470Z,3484
2018-07-16T12:24:22.195Z,3432
2018-07-16T12:25:22.924Z,3408
2018-07-16T12:26:23.664Z,3412
2018-07-16T12:27:24.394Z,3416
2018-07-16T12:28:25.124Z,3400
2018-07-16T12:29:25.865Z,3396
2018-07-16T12:30:26.592Z,3384
2018-07-16T12:31:27.319Z,3368
2018-07-16T12:32:28.047Z,3348
2018-07-16T12:33:28.773Z,3324
2018-07-16T12:34:29.500Z,3308
2018-07-16T12:35:30.228Z,3284
2018-07-16T12:36:30.969Z,3284
2018-07-16T12:37:31.696Z,3272
2018-07-16T12:38:32.424Z,3260
2018-07-16T12:39:33.166Z,3236
2018-07-16T12:40:33.894Z,3220
2018-07-16T12:41:34.756Z,3188
2018-07-16T12:42:35.350Z,3160
2018-07-16T12:43:36.077Z,3148
2018-07-16T12:44:36.804Z,3136
2018-07-16T12:45:37.539Z,3088
2018-07-16T12:46:38.259Z,3080
2018-07-16T12:47:38.999Z,3072
2018-07-16T12:48:39.727Z,3064
2018-07-16T12:49:40.456Z,3040
2018-07-16T12:50:41.198Z,3020
2018-07-16T12:51:41.925Z,3000
2018-07-16T12:52:42.650Z,2984
2018-07-16T12:53:43.377Z,2972
2018-07-16T12:54:44.108Z,2976
2018-07-16T12:55:44.832Z,2968
2018-07-16T12:56:45.560Z,2928
2018-07-16T12:57:46.287Z,2928
2018-07-16T12:58:47.027Z,2912
2018-07-16T12:59:47.752Z,2912
2018-07-16T13:00:48.479Z,2908
2018-07-16T13:01:49.207Z,2884
2018-07-16T13:02:49.933Z,2872
2018-07-16T13:03:50.660Z,2852
2018-07-16T13:04:51.390Z,2840
2018-07-16T13:05:52.116Z,2844
2018-07-16T13:06:52.844Z,2864
2018-07-16T13:07:53.585Z,2864
2018-07-16T13:08:54.310Z,2844
2018-07-16T13:09:55.052Z,2816
2018-07-16T13:10:55.778Z,2800
2018-07-16T13:11:56.505Z,2808
2018-07-16T13:12:57.231Z,2804
2018-07-16T13:13:57.969Z,2788
2018-07-16T13:14:58.698Z,2772
2018-07-16T13:15:59.504Z,2780
2018-07-16T13:17:00.153Z,2836
2018-07-16T13:18:00.876Z,2804
2018-07-16T13:19:01.604Z,2728
2018-07-16T13:20:02.331Z,2704
2018-07-16T13:21:03.073Z,2704
2018-07-16T13:22:03.803Z,2664
2018-07-16T13:23:04.542Z,2632
2018-07-16T13:24:05.270Z,2640
2018-07-16T13:25:05.994Z,2612
2018-07-16T13:26:06.723Z,2596
2018-07-16T13:27:07.451Z,2596
2018-07-16T13:28:08.191Z,2600
2018-07-16T13:29:08.932Z,2616
2018-07-16T13:30:09.663Z,2628
2018-07-16T13:31:10.386Z,2628
2018-07-16T13:32:11.112Z,2628
2018-07-16T13:33:11.838Z,2628
2018-07-16T13:34:12.570Z,2616
2018-07-16T13:35:13.306Z,2588
2018-07-16T13:36:14.034Z,2568
2018-07-16T13:37:14.875Z,2560
2018-07-16T13:38:15.501Z,2576
2018-07-16T13:39:16.242Z,2592
2018-07-16T13:40:16.969Z,2640
2018-07-16T13:41:17.697Z,2604
2018-07-16T13:42:18.437Z,2512
2018-07-16T13:43:19.166Z,2412
2018-07-16T13:44:19.892Z,2388
2018-07-16T13:45:20.620Z,2380
2018-07-16T13:46:21.356Z,2384
2018-07-16T13:47:22.071Z,2380
2018-07-16T13:48:22.798Z,2376
2018-07-16T13:49:23.524Z,2400
2018-07-16T13:50:24.255Z,2384
2018-07-16T13:51:24.976Z,2376
2018-07-16T13:52:25.702Z,2364
2018-07-16T13:53:26.441Z,2352
2018-07-16T13:54:27.167Z,2336
2018-07-16T13:55:27.905Z,2312
2018-07-16T13:56:28.632Z,2296
2018-07-16T13:57:29.373Z,2272
2018-07-16T13:58:30.100Z,2252
2018-07-16T13:59:30.828Z,2236
2018-07-16T14:00:31.555Z,2212
2018-07-16T14:01:32.287Z,2200
2018-07-16T14:02:33.025Z,2188
2018-07-16T14:03:33.750Z,2180
2018-07-16T14:04:34.476Z,2176
2018-07-16T14:05:35.207Z,2172
2018-07-16T14:06:35.948Z,2172
2018-07-16T14:07:36.676Z,2160
2018-07-16T14:08:37.405Z,2164
2018-07-16T14:09:38.127Z,2164
2018-07-16T14:10:38.854Z,2156
2018-07-16T14:11:39.594Z,2144
2018-07-16T14:12:40.321Z,2156
2018-07-16T14:13:41.049Z,2160
2018-07-16T14:14:41.776Z,2152
2018-07-16T14:15:42.502Z,2140
2018-07-16T14:16:43.233Z,2140
2018-07-16T14:17:43.956Z,2096
2018-07-16T14:18:44.683Z,2072
2018-07-16T14:19:45.409Z,2060
2018-07-16T14:20:46.134Z,2056
2018-07-16T14:21:46.873Z,2052
2018-07-16T14:22:47.598Z,2044
2018-07-16T14:23:48.324Z,2032
2018-07-16T14:24:49.051Z,2032
2018-07-16T14:25:49.777Z,2032
2018-07-16T14:26:50.504Z,2028
2018-07-16T14:27:51.245Z,2024
2018-07-16T14:28:51.971Z,2012
2018-07-16T14:29:52.699Z,2004
2018-07-16T14:30:53.436Z,1980
2018-07-16T14:31:54.162Z,1972
2018-07-16T14:32:54.903Z,1964
2018-07-16T14:33:55.630Z,1948
2018-07-16T14:34:56.358Z,1940
2018-07-16T14:35:57.081Z,1932
2018-07-16T14:36:57.806Z,1920
2018-07-16T14:37:58.531Z,1916
2018-07-16T14:38:59.258Z,1912
2018-07-16T14:39:59.996Z,1904
2018-07-16T14:41:00.711Z,1896
2018-07-16T14:42:01.436Z,1888
2018-07-16T14:43:02.161Z,1876
2018-07-16T14:44:02.885Z,1868
2018-07-16T14:45:03.612Z,1868
2018-07-16T14:46:04.337Z,1860
2018-07-16T14:47:05.065Z,1848
2018-07-16T14:48:05.795Z,1836
2018-07-16T14:49:06.515Z,1828
2018-07-16T14:50:07.241Z,1824
2018-07-16T14:51:08.007Z,1816
2018-07-16T14:52:08.707Z,1800
2018-07-16T14:53:09.430Z,1796
2018-07-16T14:54:10.168Z,1776
2018-07-16T14:55:10.895Z,1780
2018-07-16T14:56:11.626Z,1776
2018-07-16T14:57:12.440Z,1784
2018-07-16T14:58:13.087Z,1776
2018-07-16T14:59:13.811Z,1756
2018-07-16T15:00:14.536Z,1744
2018-07-16T15:01:15.263Z,1728
2018-07-16T15:02:15.990Z,1716
2018-07-16T15:03:16.717Z,1708
2018-07-16T15:04:17.443Z,1696
2018-07-16T15:05:18.169Z,1688
2018-07-16T15:06:18.896Z,1680
2018-07-16T15:07:19.622Z,1676
2018-07-16T15:08:20.345Z,1676
2018-07-16T15:09:21.073Z,1672
2018-07-16T15:10:21.810Z,1664
2018-07-16T15:11:22.548Z,1656
2018-07-16T15:12:23.289Z,1648
2018-07-16T15:13:24.015Z,1636
2018-07-16T15:14:24.755Z,1628
2018-07-16T15:15:25.477Z,1624
2018-07-16T15:16:26.217Z,1612
2018-07-16T15:17:26.946Z,1604
2018-07-16T15:18:27.668Z,1600
2018-07-16T15:19:28.394Z,1592
2018-07-16T15:20:29.247Z,1584
2018-07-16T15:21:30.031Z,1576
2018-07-16T15:22:30.588Z,1572
2018-07-16T15:23:31.339Z,1564
2018-07-16T15:24:32.040Z,1560
2018-07-16T15:25:32.765Z,1552
2018-07-16T15:26:33.503Z,1552
2018-07-16T15:27:34.226Z,1544
2018-07-16T15:28:34.965Z,1540